createdAt,value
2017-12-21T00:02:04.941Z,25.35
2017-12-21T00:04:31.853Z,25.35
2017-12-21T00:06:58.779Z,24.80
2017-12-21T00:09:25.752Z,20.52
2017-12-21T00:11:52.677Z,16.50
2017-12-21T00:14:19.637Z,19.12
2017-12-21T00:16:46.609Z,24.95
2017-12-21T00:19:13.517Z,21.67
2017-12-21T00:21:41.216Z,22.80
2017-12-21T00:24:08.125Z,17.98
2017-12-21T00:26:35.833Z,16.27
2017-12-21T00:29:02.755Z,18.25
2017-12-21T00:31:30.084Z,21.73
2017-12-21T00:33:57.766Z,15.88
2017-12-21T00:36:24.864Z,19.20
2017-12-21T00:38:51.772Z,17.90
2017-12-21T00:41:18.706Z,17.90
2017-12-21T00:43:45.609Z,16.55
2017-12-21T00:46:12.534Z,20.05
2017-12-21T00:48:39.457Z,35.38
2017-12-21T00:51:06.384Z,24.05
2017-12-21T00:53:33.306Z,21.55
2017-12-21T00:56:01.013Z,22.55
2017-12-21T00:58:27.936Z,22.40
2017-12-21T01:00:54.869Z,18.60
2017-12-21T01:03:21.784Z,21.73
2017-12-21T01:05:48.695Z,16.87
2017-12-21T01:08:15.645Z,17.75
2017-12-21T01:10:43.465Z,22.65
2017-12-21T01:13:11.161Z,20.15
2017-12-21T01:15:39.097Z,25.75
2017-12-21T01:18:06.016Z,23.67
2017-12-21T01:20:32.929Z,21.40
2017-12-21T01:22:59.859Z,23.38
2017-12-21T01:25:26.766Z,21.40
2017-12-21T01:27:53.684Z,21.67
2017-12-21T01:30:20.600Z,16.42
2017-12-21T01:32:48.306Z,19.45
2017-12-21T01:35:15.220Z,18.37
2017-12-21T01:37:42.950Z,19.83
2017-12-21T01:40:09.855Z,18.80
2017-12-21T01:42:38.451Z,25.65
2017-12-21T01:45:06.124Z,22.70
2017-12-21T01:47:33.065Z,25.80
2017-12-21T01:49:59.992Z,24.40
2017-12-21T01:52:28.861Z,17.62
2017-12-21T01:54:55.764Z,26.42
2017-12-21T01:57:22.694Z,27.13
2017-12-21T01:59:49.613Z,20.00
2017-12-21T02:02:16.536Z,24.48
2017-12-21T02:04:44.204Z,31.67
2017-12-21T02:07:11.129Z,31.62
2017-12-21T02:09:38.804Z,25.60
2017-12-21T02:12:05.732Z,23.90
2017-12-21T02:14:38.099Z,24.30
2017-12-21T02:17:05.788Z,21.45
2017-12-21T02:19:32.692Z,33.13
2017-12-21T02:21:59.620Z,30.85
2017-12-21T02:24:26.552Z,22.92
2017-12-21T02:26:53.505Z,24.70
2017-12-21T02:29:20.413Z,31.30
2017-12-21T02:31:47.328Z,29.60
2017-12-21T02:34:15.009Z,28.23
2017-12-21T02:36:41.928Z,39.60
2017-12-21T02:39:08.837Z,36.10
2017-12-21T02:41:35.777Z,33.78
2017-12-21T02:44:02.720Z,31.90
2017-12-21T02:46:29.637Z,26.60
2017-12-21T02:48:56.596Z,19.55
2017-12-21T02:51:23.517Z,25.37
2017-12-21T02:53:50.469Z,29.70
2017-12-21T02:56:18.156Z,33.38
2017-12-21T02:58:45.089Z,29.35
2017-12-21T03:01:12.019Z,26.17
2017-12-21T03:03:39.705Z,22.90
2017-12-21T03:06:06.640Z,24.50
2017-12-21T03:08:33.548Z,19.48
2017-12-21T03:11:00.489Z,29.12
2017-12-21T03:13:27.396Z,31.62
2017-12-21T03:15:54.305Z,25.27
2017-12-21T03:18:21.997Z,26.50
2017-12-21T03:20:48.925Z,26.17
2017-12-21T03:23:15.846Z,26.87
2017-12-21T03:25:43.521Z,22.48
2017-12-21T03:28:10.476Z,26.05
2017-12-21T03:30:37.411Z,25.02
2017-12-21T03:33:04.338Z,22.62
2017-12-21T03:35:32.019Z,25.42
2017-12-21T03:37:58.946Z,21.83
2017-12-21T03:40:26.629Z,25.75
2017-12-21T03:42:53.555Z,24.12
2017-12-21T03:45:21.233Z,23.27
2017-12-21T03:47:48.163Z,20.02
2017-12-21T03:50:15.851Z,25.95
2017-12-21T03:52:42.783Z,20.55
2017-12-21T03:55:09.700Z,15.68
2017-12-21T03:57:36.637Z,19.92
2017-12-21T04:00:03.547Z,16.35
2017-12-21T04:02:30.484Z,23.17
2017-12-21T04:04:57.391Z,16.27
2017-12-21T04:07:25.080Z,18.95
2017-12-21T04:09:51.992Z,20.23
2017-12-21T04:12:19.689Z,20.20
2017-12-21T04:14:46.604Z,16.27
2017-12-21T04:17:14.301Z,18.92
2017-12-21T04:19:41.220Z,22.00
2017-12-21T04:22:08.156Z,20.42
2017-12-21T04:24:35.836Z,17.70
2017-12-21T04:27:02.773Z,14.05
2017-12-21T04:29:29.690Z,18.10
2017-12-21T04:31:56.642Z,15.77
2017-12-21T04:34:23.572Z,13.18
2017-12-21T04:36:50.500Z,13.38
2017-12-21T04:39:17.439Z,15.15
2017-12-21T04:41:44.374Z,14.50
2017-12-21T04:44:11.298Z,20.65
2017-12-21T04:46:38.224Z,14.90
2017-12-21T04:49:05.146Z,14.63
2017-12-21T04:51:32.064Z,15.35
2017-12-21T04:53:59.732Z,16.10
2017-12-21T04:56:27.416Z,17.10
2017-12-21T04:58:54.337Z,15.07
2017-12-21T05:01:22.031Z,15.18
2017-12-21T05:03:48.937Z,18.08
2017-12-21T05:06:15.881Z,16.83
2017-12-21T05:08:42.794Z,14.13
2017-12-21T05:11:09.724Z,14.43
2017-12-21T05:13:36.638Z,13.57
2017-12-21T05:16:03.578Z,11.70
2017-12-21T05:18:30.495Z,5.37
2017-12-21T05:20:58.180Z,8.50
2017-12-21T05:23:25.084Z,6.35
2017-12-21T05:25:52.018Z,7.30
2017-12-21T05:28:18.925Z,8.70
2017-12-21T05:30:45.831Z,10.80
2017-12-21T05:33:13.521Z,10.85
2017-12-21T05:35:40.456Z,10.10
2017-12-21T05:38:08.128Z,10.43
2017-12-21T05:40:35.068Z,10.55
2017-12-21T05:43:01.968Z,8.02
2017-12-21T05:45:29.815Z,11.00
2017-12-21T05:47:57.502Z,10.23
2017-12-21T05:50:24.411Z,9.82
2017-12-21T05:52:51.359Z,10.23
2017-12-21T05:55:20.048Z,12.68
2017-12-21T05:57:47.737Z,14.75
2017-12-21T06:00:14.701Z,10.13
2017-12-21T06:02:41.616Z,13.50
2017-12-21T06:05:08.537Z,15.70
2017-12-21T06:07:36.215Z,11.00
2017-12-21T06:10:03.892Z,16.65
2017-12-21T06:12:30.813Z,15.85
2017-12-21T06:14:57.725Z,11.55
2017-12-21T06:17:24.652Z,11.75
2017-12-21T06:19:51.570Z,13.80
2017-12-21T06:22:18.497Z,10.43
2017-12-21T06:24:45.434Z,13.23
2017-12-21T06:27:12.352Z,10.27
2017-12-21T06:29:39.268Z,16.95
2017-12-21T06:32:07.160Z,13.98
2017-12-21T06:34:34.860Z,13.50
2017-12-21T06:37:01.789Z,17.92
2017-12-21T06:39:28.694Z,16.40
2017-12-21T06:41:56.384Z,19.58
2017-12-21T06:44:24.056Z,21.12
2017-12-21T06:46:50.981Z,15.90
2017-12-21T06:49:17.894Z,21.92
2017-12-21T06:51:44.821Z,13.48
2017-12-21T06:54:11.731Z,25.37
2017-12-21T06:56:38.656Z,16.58
2017-12-21T06:59:06.329Z,20.98
2017-12-21T07:01:33.270Z,18.15
2017-12-21T07:04:00.183Z,17.85
2017-12-21T07:06:27.105Z,15.10
2017-12-21T07:08:54.020Z,10.25
2017-12-21T07:11:20.962Z,15.13
2017-12-21T07:13:47.875Z,12.10
2017-12-21T07:16:15.557Z,9.82
2017-12-21T07:18:42.460Z,15.77
2017-12-21T07:21:10.155Z,15.30
2017-12-21T07:23:37.052Z,12.93
2017-12-21T07:26:03.981Z,16.15
2017-12-21T07:28:30.905Z,12.37
2017-12-21T07:30:57.809Z,12.13
2017-12-21T07:33:24.733Z,13.80
2017-12-21T07:35:52.425Z,11.38
2017-12-21T07:38:19.337Z,14.45
2017-12-21T07:40:46.259Z,14.25
2017-12-21T07:43:13.187Z,11.18
2017-12-21T07:45:40.108Z,16.62
2017-12-21T07:48:07.995Z,12.18
2017-12-21T07:50:34.884Z,17.73
2017-12-21T07:53:02.644Z,16.48
2017-12-21T07:55:30.356Z,16.55
2017-12-21T07:57:57.274Z,18.52
2017-12-21T08:00:24.244Z,14.85
2017-12-21T08:02:51.127Z,12.65
2017-12-21T08:05:18.048Z,12.80
2017-12-21T08:07:44.988Z,19.75
2017-12-21T08:10:11.935Z,17.00
2017-12-21T08:12:38.865Z,18.60
2017-12-21T08:15:05.813Z,13.07
2017-12-21T08:17:32.720Z,20.00
2017-12-21T08:20:00.396Z,15.75
2017-12-21T08:22:27.339Z,11.90
2017-12-21T08:24:54.258Z,24.87
2017-12-21T08:27:21.942Z,24.05
2017-12-21T08:29:48.907Z,17.45
2017-12-21T08:32:15.815Z,15.50
2017-12-21T08:34:43.509Z,19.98
2017-12-21T08:37:10.412Z,11.45
2017-12-21T08:39:37.352Z,22.52
2017-12-21T08:42:04.256Z,33.50
2017-12-21T08:44:31.196Z,18.27
2017-12-21T08:46:58.129Z,13.32
2017-12-21T08:49:25.041Z,14.63
2017-12-21T08:51:51.950Z,15.45
2017-12-21T08:54:18.875Z,20.50
2017-12-21T08:56:50.073Z,18.85
2017-12-21T08:59:17.001Z,25.50
2017-12-21T09:01:43.913Z,28.60
2017-12-21T09:04:10.854Z,25.33
2017-12-21T09:06:37.829Z,10.93
2017-12-21T09:09:04.721Z,35.35
2017-12-21T09:11:32.417Z,16.67
2017-12-21T09:13:59.334Z,14.57
2017-12-21T09:16:26.313Z,15.65
2017-12-21T09:18:53.230Z,10.95
2017-12-21T09:21:20.156Z,24.77
2017-12-21T09:23:47.833Z,14.57
2017-12-21T09:26:14.784Z,17.87
2017-12-21T09:28:42.463Z,15.63
2017-12-21T09:31:10.421Z,17.62
2017-12-21T09:33:37.341Z,18.52
2017-12-21T09:36:04.264Z,13.00
2017-12-21T09:38:31.177Z,16.42
2017-12-21T09:41:01.733Z,25.20
2017-12-21T09:43:28.658Z,14.40
2017-12-21T09:45:55.584Z,20.55
2017-12-21T09:48:23.256Z,16.77
2017-12-21T09:50:50.205Z,16.20
2017-12-21T09:53:17.121Z,16.67
2017-12-21T09:55:46.069Z,19.98
2017-12-21T09:58:12.985Z,15.23
2017-12-21T10:00:39.925Z,15.15
2017-12-21T10:03:06.840Z,17.00
2017-12-21T10:05:33.769Z,20.67
2017-12-21T10:08:00.722Z,14.75
2017-12-21T10:10:27.661Z,18.40
2017-12-21T10:12:54.572Z,9.13
2017-12-21T10:15:21.524Z,10.40
2017-12-21T10:17:48.461Z,23.20
2017-12-21T10:20:15.389Z,11.70
2017-12-21T10:22:42.316Z,14.10
2017-12-21T10:25:09.230Z,14.45
2017-12-21T10:27:36.158Z,26.87
2017-12-21T10:30:03.073Z,7.97
2017-12-21T10:32:30.019Z,15.55
2017-12-21T10:34:56.945Z,17.58
2017-12-21T10:37:23.860Z,8.23
2017-12-21T10:39:50.763Z,10.77
2017-12-21T10:42:17.698Z,12.27
2017-12-21T10:44:44.625Z,15.65
2017-12-21T10:47:11.561Z,8.13
2017-12-21T10:49:38.467Z,20.60
2017-12-21T10:52:06.161Z,10.90
2017-12-21T10:54:33.070Z,12.80
2017-12-21T10:57:00.811Z,8.35
2017-12-21T10:59:27.717Z,11.75
2017-12-21T11:01:54.645Z,10.93
2017-12-21T11:04:21.559Z,30.48
2017-12-21T11:06:49.263Z,7.22
2017-12-21T11:09:16.168Z,10.93
2017-12-21T11:11:43.852Z,12.13
2017-12-21T11:14:11.525Z,9.32
2017-12-21T11:16:38.434Z,8.98
2017-12-21T11:19:06.122Z,6.62
2017-12-21T11:21:33.029Z,20.73
2017-12-21T11:23:59.952Z,7.90
2017-12-21T11:26:26.857Z,10.48
2017-12-21T11:28:53.784Z,8.30
2017-12-21T11:31:20.698Z,14.13
2017-12-21T11:33:47.621Z,17.58
2017-12-21T11:36:14.529Z,11.57
2017-12-21T11:38:41.450Z,13.75
2017-12-21T11:41:08.364Z,13.40
2017-12-21T11:43:36.065Z,13.95
2017-12-21T11:46:02.972Z,14.07
2017-12-21T11:48:29.892Z,7.15
2017-12-21T11:50:56.807Z,10.48
2017-12-21T11:53:23.728Z,14.73
2017-12-21T11:55:51.415Z,11.93
2017-12-21T11:58:18.338Z,4.68
2017-12-21T12:00:45.240Z,9.57
2017-12-21T12:03:12.203Z,12.50
2017-12-21T12:05:39.135Z,14.30
2017-12-21T12:08:06.057Z,6.15
2017-12-21T12:10:32.977Z,8.98
2017-12-21T12:13:01.560Z,4.53
2017-12-21T12:15:29.253Z,11.82
2017-12-21T12:17:56.160Z,8.95
2017-12-21T12:20:23.849Z,16.60
2017-12-21T12:22:51.672Z,11.73
2017-12-21T12:25:18.620Z,5.28
2017-12-21T12:27:45.526Z,14.68
2017-12-21T12:30:12.449Z,9.85
2017-12-21T12:32:39.362Z,14.18
2017-12-21T12:35:07.072Z,16.77
2017-12-21T12:37:34.722Z,7.97
2017-12-21T12:40:02.649Z,6.40
2017-12-21T12:42:29.557Z,6.18
2017-12-21T12:44:56.485Z,11.85
2017-12-21T12:47:23.401Z,16.55
2017-12-21T12:49:51.109Z,11.68
2017-12-21T12:52:18.044Z,10.23
2017-12-21T12:54:44.963Z,13.98
2017-12-21T12:57:11.869Z,10.38
2017-12-21T12:59:38.793Z,13.60
2017-12-21T13:02:05.738Z,10.75
2017-12-21T13:04:32.651Z,8.32
2017-12-21T13:06:59.545Z,8.70
2017-12-21T13:09:26.464Z,11.25
2017-12-21T13:11:53.404Z,11.80
2017-12-21T13:14:20.333Z,9.30
2017-12-21T13:16:47.237Z,13.75
2017-12-21T13:19:14.188Z,20.67
2017-12-21T13:21:41.093Z,8.75
2017-12-21T13:24:08.770Z,11.57
2017-12-21T13:26:36.453Z,4.18
2017-12-21T13:29:03.373Z,5.43
2017-12-21T13:31:31.101Z,10.70
2017-12-21T13:33:57.976Z,4.93
2017-12-21T13:36:25.654Z,14.93
2017-12-21T13:38:52.590Z,6.78
2017-12-21T13:41:19.500Z,5.43
2017-12-21T13:43:47.188Z,5.43
2017-12-21T13:46:14.095Z,7.12
2017-12-21T13:48:41.013Z,5.10
2017-12-21T13:51:09.690Z,3.70
2017-12-21T13:53:36.622Z,9.40
2017-12-21T13:56:03.539Z,13.82
2017-12-21T13:58:30.475Z,11.38
2017-12-21T14:00:57.433Z,9.60
2017-12-21T14:03:24.357Z,18.37
2017-12-21T14:05:51.277Z,10.15
2017-12-21T14:08:18.186Z,5.37
2017-12-21T14:10:45.138Z,9.02
2017-12-21T14:13:12.034Z,8.98
2017-12-21T14:15:38.957Z,8.80
2017-12-21T14:18:06.868Z,14.80
2017-12-21T14:20:33.784Z,7.90
2017-12-21T14:23:00.697Z,14.30
2017-12-21T14:25:27.623Z,6.68
2017-12-21T14:27:54.545Z,16.05
2017-12-21T14:30:21.461Z,8.10
2017-12-21T14:32:48.376Z,8.35
2017-12-21T14:35:15.294Z,7.28
2017-12-21T14:37:43.137Z,11.77
2017-12-21T14:40:10.824Z,6.50
2017-12-21T14:42:39.684Z,14.82
2017-12-21T14:45:07.373Z,7.37
2017-12-21T14:47:34.291Z,12.02
2017-12-21T14:50:01.977Z,6.78
2017-12-21T14:52:28.880Z,8.05
2017-12-21T14:54:55.799Z,16.08
2017-12-21T14:57:22.700Z,4.37
2017-12-21T14:59:49.617Z,11.57
2017-12-21T15:02:16.524Z,29.00
2017-12-21T15:04:44.351Z,13.57
2017-12-21T15:07:11.256Z,13.07
2017-12-21T15:09:38.174Z,21.20
2017-12-21T15:12:05.096Z,15.90
2017-12-21T15:14:32.034Z,22.10
2017-12-21T15:16:58.945Z,15.60
2017-12-21T15:19:25.861Z,22.00
2017-12-21T15:21:52.775Z,20.58
2017-12-21T15:24:19.698Z,21.87
2017-12-21T15:26:46.607Z,25.67
2017-12-21T15:29:13.532Z,24.00
2017-12-21T15:31:40.442Z,19.58
2017-12-21T15:34:08.160Z,25.73
2017-12-21T15:36:35.097Z,25.58
2017-12-21T15:39:02.006Z,23.90
2017-12-21T15:41:28.932Z,18.92
2017-12-21T15:43:55.853Z,19.10
2017-12-21T15:46:22.756Z,19.77
2017-12-21T15:48:50.444Z,21.17
2017-12-21T15:51:17.350Z,13.13
2017-12-21T15:53:44.270Z,14.77
2017-12-21T15:56:11.181Z,22.17
2017-12-21T15:58:38.109Z,20.77
2017-12-21T16:01:05.019Z,19.73
2017-12-21T16:03:31.938Z,14.20
2017-12-21T16:05:58.861Z,10.68
2017-12-21T16:08:25.827Z,17.62
2017-12-21T16:10:52.733Z,11.12
2017-12-21T16:13:19.648Z,12.00
2017-12-21T16:15:47.333Z,9.13
2017-12-21T16:18:14.248Z,17.98
2017-12-21T16:20:41.201Z,19.75
2017-12-21T16:23:08.087Z,11.00
2017-12-21T16:25:35.772Z,18.98
2017-12-21T16:28:03.436Z,5.75
2017-12-21T16:30:30.377Z,13.13
2017-12-21T16:32:57.280Z,14.00
2017-12-21T16:35:24.197Z,16.12
2017-12-21T16:37:57.857Z,12.48
2017-12-21T16:40:24.788Z,15.05
2017-12-21T16:42:51.738Z,12.52
2017-12-21T16:45:18.661Z,9.85
2017-12-21T16:47:45.572Z,12.63
2017-12-21T16:50:12.515Z,18.33
2017-12-21T16:52:39.461Z,10.48
2017-12-21T16:55:06.369Z,14.50
2017-12-21T16:57:33.301Z,19.17
2017-12-21T17:00:00.211Z,19.67
2017-12-21T17:02:27.119Z,16.27
2017-12-21T17:04:54.040Z,16.92
2017-12-21T17:07:20.953Z,16.20
2017-12-21T17:09:47.882Z,21.40
2017-12-21T17:12:14.788Z,14.38
2017-12-21T17:14:45.544Z,20.08
2017-12-21T17:17:13.248Z,12.10
2017-12-21T17:19:40.203Z,23.67
2017-12-21T17:22:07.896Z,16.77
2017-12-21T17:24:34.849Z,14.68
2017-12-21T17:27:02.680Z,19.40
2017-12-21T17:29:29.605Z,22.70
2017-12-21T17:31:56.515Z,12.27
2017-12-21T17:34:23.444Z,33.65
2017-12-21T17:36:50.378Z,15.00
2017-12-21T17:39:17.300Z,20.75
2017-12-21T17:41:44.218Z,23.75
2017-12-21T17:44:11.194Z,20.90
2017-12-21T17:46:38.120Z,11.50
2017-12-21T17:49:05.040Z,22.92
2017-12-21T17:51:31.951Z,15.63
2017-12-21T17:53:58.872Z,17.92
2017-12-21T17:56:25.786Z,25.10
2017-12-21T17:58:52.729Z,23.92
2017-12-21T18:01:19.637Z,18.75
2017-12-21T18:03:46.608Z,21.40
2017-12-21T18:06:13.516Z,16.65
2017-12-21T18:08:40.441Z,22.25
2017-12-21T18:11:07.356Z,26.20
2017-12-21T18:13:34.333Z,19.20
2017-12-21T18:16:01.232Z,26.77
2017-12-21T18:18:28.200Z,24.15
2017-12-21T18:20:55.129Z,16.65
2017-12-21T18:23:22.036Z,26.50
2017-12-21T18:25:48.952Z,24.67
2017-12-21T18:28:16.631Z,30.45
2017-12-21T18:30:43.586Z,30.90
2017-12-21T18:33:10.496Z,16.60
2017-12-21T18:35:37.423Z,27.75
2017-12-21T18:38:04.340Z,33.30
2017-12-21T18:40:31.285Z,24.98
2017-12-21T18:42:58.328Z,30.10
2017-12-21T18:45:25.281Z,21.75
2017-12-21T18:47:52.193Z,24.90
2017-12-21T18:50:21.818Z,18.67
2017-12-21T18:52:49.507Z,16.95
2017-12-21T18:55:16.487Z,20.83
2017-12-21T18:57:43.483Z,21.15
2017-12-21T19:00:11.156Z,27.83
2017-12-21T19:02:38.120Z,24.42
2017-12-21T19:05:05.048Z,25.83
2017-12-21T19:07:31.956Z,25.98
2017-12-21T19:09:58.901Z,26.90
2017-12-21T19:12:25.812Z,24.95
2017-12-21T19:14:53.147Z,24.67
2017-12-21T19:17:20.861Z,24.12
2017-12-21T19:19:47.801Z,30.23
2017-12-21T19:22:21.529Z,20.15
2017-12-21T19:24:48.443Z,22.62
2017-12-21T19:27:16.376Z,25.08
2017-12-21T19:29:43.308Z,22.25
2017-12-21T19:32:11.014Z,19.67
2017-12-21T19:34:37.932Z,24.75
2017-12-21T19:37:04.871Z,21.45
2017-12-21T19:39:31.797Z,24.05
2017-12-21T19:41:58.729Z,27.10
2017-12-21T19:44:26.405Z,21.92
2017-12-21T19:46:53.333Z,16.95
2017-12-21T19:49:21.929Z,25.48
2017-12-21T19:51:48.877Z,25.52
2017-12-21T19:54:15.816Z,21.05
2017-12-21T19:56:42.753Z,22.37
2017-12-21T19:59:09.670Z,23.40
2017-12-21T20:01:36.614Z,26.00
2017-12-21T20:04:03.545Z,25.15
2017-12-21T20:06:30.496Z,22.17
2017-12-21T20:08:57.408Z,31.67
2017-12-21T20:11:24.339Z,22.67
2017-12-21T20:13:51.249Z,31.90
2017-12-21T20:16:18.192Z,25.70
2017-12-21T20:18:45.096Z,28.80
2017-12-21T20:21:12.788Z,17.60
2017-12-21T20:23:40.659Z,27.98
2017-12-21T20:26:07.582Z,31.08
2017-12-21T20:28:34.496Z,28.00
2017-12-21T20:31:01.475Z,27.20
2017-12-21T20:33:29.220Z,24.30
2017-12-21T20:35:56.129Z,27.37
2017-12-21T20:38:23.972Z,20.40
2017-12-21T20:40:50.909Z,24.08
2017-12-21T20:43:17.830Z,18.83
2017-12-21T20:45:44.782Z,22.02
2017-12-21T20:48:11.696Z,27.48
2017-12-21T20:50:38.609Z,25.58
2017-12-21T20:53:06.300Z,31.37
2017-12-21T20:55:33.222Z,23.08
2017-12-21T20:58:00.165Z,31.73
2017-12-21T21:00:27.862Z,32.80
2017-12-21T21:02:54.772Z,21.73
2017-12-21T21:05:21.691Z,27.15
2017-12-21T21:07:49.405Z,23.65
2017-12-21T21:10:16.332Z,17.90
2017-12-21T21:12:43.285Z,14.60
2017-12-21T21:15:10.226Z,20.12
2017-12-21T21:17:37.157Z,25.75
2017-12-21T21:20:05.098Z,24.27
2017-12-21T21:22:32.777Z,19.77
2017-12-21T21:24:59.729Z,19.25
2017-12-21T21:27:26.648Z,25.00
2017-12-21T21:29:54.324Z,17.55
2017-12-21T21:32:22.187Z,34.72
2017-12-21T21:34:49.124Z,17.60
2017-12-21T21:37:16.792Z,20.62
2017-12-21T21:39:43.704Z,17.02
2017-12-21T21:42:10.636Z,18.17
2017-12-21T21:44:37.568Z,17.08
2017-12-21T21:47:05.254Z,12.75
2017-12-21T21:49:32.162Z,16.70
2017-12-21T21:51:59.129Z,19.95
2017-12-21T21:54:27.107Z,11.20
2017-12-21T21:56:57.293Z,13.35
2017-12-21T21:59:24.191Z,18.67
2017-12-21T22:01:54.556Z,18.60
2017-12-21T22:04:21.480Z,14.68
2017-12-21T22:06:49.173Z,12.65
2017-12-21T22:09:16.084Z,11.82
2017-12-21T22:11:43.017Z,13.20
2017-12-21T22:14:10.112Z,16.27
2017-12-21T22:16:37.020Z,14.20
2017-12-21T22:19:03.948Z,12.55
2017-12-21T22:21:30.889Z,13.60
2017-12-21T22:23:57.820Z,11.43
2017-12-21T22:26:24.775Z,18.92
2017-12-21T22:28:52.462Z,8.93
2017-12-21T22:31:19.380Z,7.32
2017-12-21T22:33:46.293Z,19.98
2017-12-21T22:36:13.225Z,12.35
2017-12-21T22:38:40.157Z,13.98
2017-12-21T22:41:07.108Z,11.98
2017-12-21T22:43:34.781Z,8.07
2017-12-21T22:46:01.705Z,13.23
2017-12-21T22:48:28.634Z,14.70
2017-12-21T22:50:56.447Z,16.65
2017-12-21T22:53:25.129Z,18.45
2017-12-21T22:55:52.037Z,4.28
2017-12-21T22:58:18.925Z,12.30
2017-12-21T23:00:47.500Z,29.25
2017-12-21T23:03:14.395Z,16.12
2017-12-21T23:05:41.299Z,19.40
2017-12-21T23:08:12.701Z,11.95
2017-12-21T23:10:39.625Z,10.75
2017-12-21T23:13:06.509Z,6.55
2017-12-21T23:15:33.421Z,20.45
2017-12-21T23:18:00.321Z,13.02
2017-12-21T23:20:29.010Z,15.30
2017-12-21T23:22:56.670Z,14.70
2017-12-21T23:25:24.365Z,13.95
2017-12-21T23:27:55.896Z,8.65
2017-12-21T23:30:23.491Z,7.60
2017-12-21T23:32:51.196Z,13.55
2017-12-21T23:35:18.153Z,13.62
2017-12-21T23:37:45.101Z,8.98
2017-12-21T23:40:12.040Z,7.80
2017-12-21T23:42:38.966Z,21.37
2017-12-21T23:45:05.916Z,10.07
2017-12-21T23:47:33.616Z,10.18
2017-12-21T23:50:01.349Z,13.15
2017-12-21T23:52:28.286Z,13.68
2017-12-21T23:54:55.217Z,11.57
2017-12-21T23:57:22.153Z,13.98
2017-12-21T23:59:49.085Z,9.90
